Time;durP1;ratioP1;P1;durP2;ratioP2;P2;SDS_P1;SDS_P2;PMS_P1;PMS_P2;Temp;Humidity;BMP_temperature;BMP_pressure;BME280_temperature;BME280_humidity;BME280_pressure;Samples;Min_cycle;Max_cycle;Signal;HPM_P1;HPM_P2
2022/03/14 00:01:39;;;;;;;1.10;0.90;;;21.20;51.10;;;;;;4991892;28;20493;-89
2022/03/14 00:04:08;;;;;;;1.23;1.00;;;21.20;51.10;;;;;;4991228;28;20880;-89
2022/03/14 00:09:57;;;;;;;1.00;0.90;;;21.20;51.10;;;;;;5008981;28;20432;-89
2022/03/14 00:12:25;;;;;;;1.00;0.80;;;21.20;51.10;;;;;;5008748;28;20444;-89
2022/03/14 00:14:55;;;;;;;1.00;0.83;;;21.20;51.10;;;;;;5008854;28;20451;-88
2022/03/14 00:17:25;;;;;;;1.63;0.97;;;21.20;51.10;;;;;;4991130;28;20412;-89
2022/03/14 00:19:58;;;;;;;1.10;0.87;;;21.20;51.10;;;;;;4991276;28;20420;-88
2022/03/14 00:22:24;;;;;;;1.70;1.60;;;21.20;51.10;;;;;;4991110;28;20405;-89
2022/03/14 00:24:50;;;;;;;1.13;0.90;;;21.20;51.10;;;;;;4991890;28;20496;-89
2022/03/14 00:27:16;;;;;;;1.30;1.00;;;21.20;51.10;;;;;;4990735;28;20798;-88
2022/03/14 00:29:49;;;;;;;1.40;1.23;;;21.20;51.10;;;;;;4990707;28;20185;-88
2022/03/14 00:32:15;;;;;;;1.00;0.70;;;21.20;51.10;;;;;;4991352;28;20408;-88
2022/03/14 00:34:44;;;;;;;1.53;0.80;;;21.20;51.10;;;;;;4974464;28;20506;-88
2022/03/14 00:37:11;;;;;;;1.27;0.97;;;21.20;51.10;;;;;;4991093;28;20185;-88
2022/03/14 00:39:47;;;;;;;1.57;1.10;;;21.20;51.10;;;;;;4991046;28;20412;-87
2022/03/14 00:42:13;;;;;;;1.10;0.93;;;21.20;51.10;;;;;;4991018;28;20439;-89
2022/03/14 00:44:39;;;;;;;1.10;0.80;;;21.20;51.10;;;;;;4991864;28;20408;-89
2022/03/14 00:47:05;;;;;;;1.20;1.00;;;21.20;51.10;;;;;;4978455;28;20944;-88
2022/03/14 00:49:31;;;;;;;1.00;0.80;;;21.20;51.10;;;;;;4993999;28;20426;-89
2022/03/14 00:51:57;;;;;;;1.20;1.03;;;21.20;51.10;;;;;;5011466;28;20446;-89
2022/03/14 00:54:25;;;;;;;1.10;0.80;;;21.20;51.10;;;;;;4994426;28;20204;-88
2022/03/14 00:56:51;;;;;;;1.10;0.90;;;21.20;51.10;;;;;;4993745;28;20435;-89
2022/03/14 00:59:20;;;;;;;0.90;0.80;;;21.20;51.10;;;;;;5011463;28;20436;-89
2022/03/14 01:01:45;;;;;;;1.10;0.83;;;21.20;51.70;;;;;;5011260;28;20228;-89
2022/03/14 01:04:11;;;;;;;1.20;1.00;;;21.20;51.10;;;;;;4994158;28;20436;-89
2022/03/14 01:06:37;;;;;;;1.10;1.00;;;21.20;51.10;;;;;;4993560;28;20598;-89
2022/03/14 01:09:04;;;;;;;0.90;0.80;;;21.20;51.10;;;;;;5011277;28;20412;-89
2022/03/14 01:11:31;;;;;;;0.97;0.80;;;21.20;51.10;;;;;;4994547;28;20420;-89
2022/03/14 01:13:57;;;;;;;1.20;0.70;;;21.20;51.10;;;;;;4994167;28;20496;-89
2022/03/14 01:16:23;;;;;;;1.00;0.80;;;21.20;51.10;;;;;;4993629;28;20895;-89
2022/03/14 01:18:53;;;;;;;1.50;0.80;;;21.20;51.10;;;;;;5010389;28;20444;-89
2022/03/14 01:21:18;;;;;;;0.90;0.73;;;21.10;51.00;;;;;;4993478;28;20205;-90
2022/03/14 01:23:44;;;;;;;1.20;1.00;;;21.20;51.10;;;;;;5010708;28;20413;-89
2022/03/14 01:26:11;;;;;;;1.00;0.80;;;21.20;51.10;;;;;;4993084;28;20195;-89
2022/03/14 01:28:37;;;;;;;1.10;1.00;;;21.20;51.10;;;;;;5010931;28;20177;-89
2022/03/14 01:31:02;;;;;;;1.07;0.90;;;21.20;51.10;;;;;;4993692;28;20420;-89
2022/03/14 01:33:28;;;;;;;1.10;0.80;;;21.20;51.10;;;;;;4993243;28;20484;-89
2022/03/14 01:35:54;;;;;;;1.00;0.77;;;21.10;51.60;;;;;;4993187;28;20259;-89
2022/03/14 01:38:19;;;;;;;1.40;1.00;;;21.10;51.00;;;;;;4992641;28;20183;-90
2022/03/14 01:40:45;;;;;;;1.10;0.80;;;21.10;51.00;;;;;;4993329;28;20173;-90
2022/03/14 01:43:11;;;;;;;0.90;0.70;;;21.10;51.00;;;;;;4993271;28;20259;-89
2022/03/14 01:45:37;;;;;;;1.00;0.80;;;21.10;51.10;;;;;;5011178;28;20208;-89
2022/03/14 01:48:05;;;;;;;1.10;0.80;;;21.10;51.00;;;;;;4993178;28;20428;-89
2022/03/14 01:50:31;;;;;;;0.90;0.80;;;21.10;51.10;;;;;;5009891;28;20173;-89
2022/03/14 01:52:57;;;;;;;1.90;0.90;;;21.10;51.10;;;;;;5010398;28;20484;-89
2022/03/14 01:55:23;;;;;;;1.20;0.90;;;21.10;51.00;;;;;;4992347;28;20471;-89
2022/03/14 01:57:49;;;;;;;1.70;1.00;;;21.10;51.10;;;;;;4992603;28;20184;-89
2022/03/14 02:00:17;;;;;;;1.20;0.90;;;21.10;51.10;;;;;;5010280;28;20173;-89
2022/03/14 02:02:44;;;;;;;1.00;0.80;;;21.10;51.10;;;;;;4992188;28;20520;-90
2022/03/14 02:05:10;;;;;;;1.60;1.10;;;21.10;51.10;;;;;;4992585;28;20424;-89
2022/03/14 02:07:36;;;;;;;1.40;1.10;;;21.10;51.00;;;;;;5010687;28;20423;-89
2022/03/14 02:10:02;;;;;;;1.17;0.90;;;21.10;51.00;;;;;;5009913;28;20416;-89
2022/03/14 02:12:27;;;;;;;1.10;0.90;;;21.10;51.00;;;;;;4992191;28;20227;-90
2022/03/14 02:14:53;;;;;;;0.90;0.70;;;21.10;51.00;;;;;;5010026;28;20518;-88
2022/03/14 02:17:20;;;;;;;1.77;1.00;;;21.10;51.00;;;;;;4992767;28;20184;-89
2022/03/14 02:19:46;;;;;;;1.10;0.77;;;21.10;51.00;;;;;;4992874;28;20208;-89
2022/03/14 02:22:14;;;;;;;1.47;1.10;;;21.10;51.00;;;;;;4992442;28;20412;-89
2022/03/14 02:24:45;;;;;;;1.40;1.00;;;21.10;51.00;;;;;;5008947;28;20424;-89
2022/03/14 02:27:15;;;;;;;1.07;0.87;;;21.10;51.00;;;;;;5009095;28;20443;-89
2022/03/14 02:29:42;;;;;;;1.10;1.00;;;21.10;51.00;;;;;;4992464;28;20424;-89
2022/03/14 02:32:09;;;;;;;1.17;0.73;;;21.10;51.00;;;;;;4972712;28;20456;-89
2022/03/14 02:34:35;;;;;;;1.10;0.90;;;21.00;50.90;;;;;;4972274;28;20471;-89
2022/03/14 02:37:02;;;;;;;1.13;0.83;;;21.00;51.00;;;;;;4973429;28;20512;-89
2022/03/14 02:39:31;;;;;;;1.10;0.97;;;21.00;51.00;;;;;;4989782;28;20424;-89
2022/03/14 02:41:56;;;;;;;1.30;0.93;;;21.00;51.00;;;;;;4990237;28;20412;-89
2022/03/14 02:44:22;;;;;;;1.20;1.00;;;21.00;51.10;;;;;;4972336;28;20421;-89
2022/03/14 02:46:48;;;;;;;1.70;1.00;;;21.00;51.00;;;;;;4990479;28;20173;-89
2022/03/14 02:49:14;;;;;;;1.30;0.80;;;21.00;51.00;;;;;;4972482;28;20261;-88
2022/03/14 02:51:40;;;;;;;1.10;0.80;;;21.00;51.00;;;;;;4990710;28;20186;-89
2022/03/14 02:54:08;;;;;;;0.97;0.87;;;21.00;51.00;;;;;;4989658;28;20176;-89
2022/03/14 02:56:34;;;;;;;1.70;1.10;;;21.00;51.00;;;;;;4972469;28;20449;-89
2022/03/14 02:59:01;;;;;;;1.33;0.90;;;21.00;51.00;;;;;;4972142;28;20424;-90
2022/03/14 03:01:26;;;;;;;1.00;0.80;;;21.00;51.00;;;;;;4972364;28;20417;-90
2022/03/14 03:03:52;;;;;;;1.40;0.90;;;21.00;51.00;;;;;;4990114;28;20439;-90
2022/03/14 03:06:22;;;;;;;1.20;1.00;;;21.00;51.00;;;;;;4989967;28;20174;-89
2022/03/14 03:08:48;;;;;;;1.23;0.90;;;21.00;51.00;;;;;;4970793;28;20421;-89
2022/03/14 03:11:15;;;;;;;1.10;0.87;;;21.10;51.10;;;;;;4972321;28;20448;-89
2022/03/14 03:13:42;;;;;;;1.20;1.00;;;21.10;51.10;;;;;;4972766;28;20432;-89
2022/03/14 03:16:09;;;;;;;1.17;1.03;;;21.10;51.10;;;;;;4971757;28;20515;-89
2022/03/14 03:18:35;;;;;;;1.17;1.07;;;21.00;51.00;;;;;;4989606;28;20410;-89
2022/03/14 03:21:02;;;;;;;1.27;0.80;;;21.00;51.00;;;;;;4972527;28;20417;-89
2022/03/14 03:23:29;;;;;;;1.70;1.30;;;21.00;51.00;;;;;;4972895;28;20488;-89
2022/03/14 03:25:55;;;;;;;1.10;0.90;;;21.00;51.00;;;;;;4971447;28;20432;-89
2022/03/14 03:28:21;;;;;;;1.00;0.80;;;21.00;51.00;;;;;;4989054;28;20457;-89
2022/03/14 03:30:47;;;;;;;1.10;1.00;;;21.00;51.00;;;;;;4989342;28;20409;-89
2022/03/14 03:33:13;;;;;;;1.07;0.80;;;21.00;51.00;;;;;;4972550;28;20178;-89
2022/03/14 03:35:39;;;;;;;1.00;0.80;;;21.00;50.70;;;;;;4972306;28;20524;-89
2022/03/14 03:38:05;;;;;;;1.30;0.93;;;21.00;51.00;;;;;;4972298;28;20540;-89
2022/03/14 03:40:31;;;;;;;1.53;0.80;;;21.00;51.00;;;;;;4971896;28;20417;-88
2022/03/14 03:42:57;;;;;;;0.90;0.70;;;21.00;50.90;;;;;;4971551;28;20425;-88
2022/03/14 03:45:23;;;;;;;1.00;0.80;;;21.00;51.00;;;;;;4989365;28;20567;-88
2022/03/14 03:47:48;;;;;;;1.20;0.80;;;21.00;51.00;;;;;;4971831;28;20424;-88
2022/03/14 03:50:16;;;;;;;1.23;0.87;;;21.00;51.00;;;;;;4989028;28;20413;-88
2022/03/14 03:52:42;;;;;;;1.13;0.80;;;21.00;51.00;;;;;;4971917;28;20245;-89
2022/03/14 03:55:09;;;;;;;1.10;0.87;;;21.00;51.00;;;;;;4971600;28;20460;-88
2022/03/14 03:57:35;;;;;;;1.00;0.87;;;21.00;51.00;;;;;;4971640;28;20846;-88
2022/03/14 04:00:05;;;;;;;1.23;0.90;;;21.00;51.00;;;;;;4988519;28;20464;-88
2022/03/14 04:02:35;;;;;;;0.90;0.60;;;21.00;51.00;;;;;;4988356;28;20425;-89
2022/03/14 04:05:02;;;;;;;1.17;0.80;;;21.00;51.00;;;;;;4971251;28;20927;-88
2022/03/14 04:07:29;;;;;;;1.40;0.90;;;21.00;51.00;;;;;;4971104;28;20978;-88
2022/03/14 04:09:58;;;;;;;0.90;0.67;;;21.00;51.00;;;;;;4988197;28;20420;-88
2022/03/14 04:12:27;;;;;;;1.00;0.80;;;21.00;51.00;;;;;;4972102;28;20437;-89
2022/03/14 04:15:00;;;;;;;1.10;1.00;;;21.00;51.10;;;;;;4989540;28;20457;-89
2022/03/14 04:17:27;;;;;;;1.00;0.70;;;21.00;51.00;;;;;;4988066;28;20436;-89
2022/03/14 04:19:53;;;;;;;1.00;0.80;;;21.00;51.00;;;;;;4972231;28;20417;-88
2022/03/14 04:22:19;;;;;;;1.20;1.00;;;21.00;51.10;;;;;;4974922;28;20915;-89
2022/03/14 04:24:45;;;;;;;1.40;1.00;;;21.00;51.10;;;;;;4992087;28;20412;-88
2022/03/14 04:27:11;;;;;;;1.40;0.80;;;21.00;51.10;;;;;;4992166;28;20492;-89
2022/03/14 04:29:37;;;;;;;1.03;0.80;;;21.00;51.10;;;;;;4992256;28;20911;-89
2022/03/14 04:32:04;;;;;;;1.00;0.80;;;21.00;51.10;;;;;;4975057;28;20186;-89
2022/03/14 04:34:30;;;;;;;1.20;0.80;;;21.00;51.10;;;;;;4974791;28;20488;-88
2022/03/14 04:36:58;;;;;;;1.20;0.90;;;21.00;51.10;;;;;;4975031;28;20417;-88
2022/03/14 04:39:24;;;;;;;1.03;0.90;;;21.00;51.10;;;;;;4974372;28;20177;-88
2022/03/14 04:41:50;;;;;;;1.33;0.90;;;21.00;51.10;;;;;;4992056;28;20448;-88
2022/03/14 04:44:16;;;;;;;1.00;0.70;;;21.00;51.10;;;;;;4974519;28;20412;-87
2022/03/14 04:46:42;;;;;;;0.90;0.77;;;21.00;51.10;;;;;;4973221;28;20421;-87
2022/03/14 04:49:08;;;;;;;1.10;1.00;;;21.00;51.10;;;;;;4990561;28;20737;-88
2022/03/14 04:51:36;;;;;;;1.10;0.80;;;21.00;51.10;;;;;;4973003;28;20497;-88
2022/03/14 04:54:02;;;;;;;1.30;0.97;;;21.00;51.10;;;;;;4973314;28;20181;-88
2022/03/14 04:56:28;;;;;;;0.90;0.77;;;21.00;51.10;;;;;;4972996;28;20796;-88
2022/03/14 04:58:53;;;;;;;1.10;0.80;;;21.00;51.10;;;;;;4991331;28;20421;-88
2022/03/14 05:01:23;;;;;;;1.00;0.73;;;21.00;51.10;;;;;;4990461;28;20417;-88
2022/03/14 05:03:54;;;;;;;1.40;1.00;;;20.90;51.00;;;;;;4972824;28;20198;-88
2022/03/14 05:06:19;;;;;;;1.10;1.00;;;21.00;51.10;;;;;;4973539;28;20424;-88
2022/03/14 05:08:46;;;;;;;1.00;0.80;;;21.00;51.10;;;;;;4972751;28;20444;-88
2022/03/14 05:11:13;;;;;;;1.00;0.90;;;21.00;51.10;;;;;;4973158;28;20633;-88
2022/03/14 05:13:39;;;;;;;1.50;0.90;;;21.00;51.10;;;;;;4972827;28;20441;-88
2022/03/14 05:16:05;;;;;;;2.43;1.00;;;20.90;51.00;;;;;;4972365;28;20469;-89
2022/03/14 05:18:31;;;;;;;1.10;0.80;;;20.90;51.00;;;;;;4973295;28;20421;-88
2022/03/14 05:20:57;;;;;;;1.27;0.93;;;20.90;51.00;;;;;;4991895;28;20764;-88
2022/03/14 05:23:24;;;;;;;1.00;0.80;;;20.90;51.00;;;;;;4991397;28;20196;-88
2022/03/14 05:25:50;;;;;;;0.80;0.70;;;20.90;51.00;;;;;;4991963;28;20417;-88
2022/03/14 05:28:16;;;;;;;1.10;0.90;;;20.90;51.00;;;;;;4973850;28;20923;-88
2022/03/14 05:30:41;;;;;;;1.20;1.00;;;20.90;51.00;;;;;;4973254;28;20213;-88
2022/03/14 05:33:07;;;;;;;1.33;1.20;;;20.90;51.10;;;;;;4972807;28;20418;-89
2022/03/14 05:35:33;;;;;;;1.20;1.00;;;20.90;51.00;;;;;;4972704;28;20233;-89
2022/03/14 05:37:59;;;;;;;1.50;1.20;;;20.90;51.10;;;;;;4973341;28;20177;-88
2022/03/14 05:40:25;;;;;;;1.30;0.80;;;20.90;51.10;;;;;;4990009;28;20189;-88
2022/03/14 05:42:51;;;;;;;1.10;0.83;;;20.90;51.10;;;;;;4990488;28;20170;-88
2022/03/14 05:45:19;;;;;;;1.10;0.70;;;20.90;51.10;;;;;;4990221;28;20409;-88
2022/03/14 05:47:48;;;;;;;1.00;0.80;;;20.90;51.10;;;;;;4972071;28;20184;-87
2022/03/14 05:50:15;;;;;;;0.90;0.80;;;20.90;51.10;;;;;;4971941;28;20436;-87
2022/03/14 05:52:41;;;;;;;1.20;0.90;;;20.90;51.10;;;;;;4972818;28;20429;-89
2022/03/14 05:55:08;;;;;;;1.00;0.80;;;20.90;51.10;;;;;;4971269;28;20519;-89
2022/03/14 05:57:34;;;;;;;1.00;0.70;;;20.90;51.10;;;;;;4988311;28;20421;-91
2022/03/14 06:00:00;;;;;;;1.17;0.90;;;20.90;51.10;;;;;;4969773;28;20434;-90
2022/03/14 06:02:26;;;;;;;1.10;0.93;;;20.90;51.70;;;;;;4978857;28;20438;-91
2022/03/14 06:04:55;;;;;;;1.03;0.83;;;20.90;51.10;;;;;;4963235;28;20196;-89
2022/03/14 06:07:21;;;;;;;1.13;1.00;;;20.90;51.10;;;;;;4969264;28;20185;-90
2022/03/14 06:09:48;;;;;;;1.13;0.80;;;21.00;51.70;;;;;;4973396;28;20786;-90
2022/03/14 06:12:30;;;;;;;1.10;0.77;;;21.00;51.20;;;;;;4972369;28;21025;-90
2022/03/14 06:14:58;;;;;;;1.10;0.90;;;21.00;51.20;;;;;;4954002;28;20972;-90
2022/03/14 06:17:24;;;;;;;0.90;0.70;;;21.00;51.20;;;;;;4974387;28;20421;-89
2022/03/14 06:19:53;;;;;;;1.20;0.90;;;21.00;51.20;;;;;;4962231;28;20436;-90
2022/03/14 06:22:24;;;;;;;1.43;0.93;;;21.00;51.10;;;;;;4962636;28;20439;-91
2022/03/14 06:24:50;;;;;;;0.90;0.70;;;21.00;51.10;;;;;;4977496;28;20425;-91
2022/03/14 06:27:19;;;;;;;1.10;0.90;;;21.00;51.10;;;;;;4972126;28;20425;-90
2022/03/14 06:29:45;;;;;;;1.43;0.90;;;21.00;51.10;;;;;;4953111;29;20795;-90
2022/03/14 06:32:11;;;;;;;1.03;0.73;;;21.00;51.10;;;;;;4971753;28;20418;-89
2022/03/14 06:34:38;;;;;;;1.00;0.70;;;21.00;51.10;;;;;;4952826;29;20464;-90
2022/03/14 06:37:07;;;;;;;0.90;0.70;;;21.00;51.10;;;;;;4953942;28;20431;-90
2022/03/14 06:39:37;;;;;;;0.97;0.80;;;21.00;51.10;;;;;;4958103;28;20477;-90
2022/03/14 06:42:08;;;;;;;0.90;0.70;;;21.00;51.10;;;;;;4953413;28;20522;-90
2022/03/14 06:44:36;;;;;;;1.57;0.80;;;21.00;51.10;;;;;;4956083;28;20509;-90
2022/03/14 06:47:05;;;;;;;1.33;0.93;;;21.10;51.10;;;;;;4972712;28;20943;-90
2022/03/14 06:49:31;;;;;;;1.10;0.80;;;21.10;51.10;;;;;;4952042;29;20995;-90
2022/03/14 06:51:56;;;;;;;1.00;0.90;;;21.10;51.10;;;;;;4952710;28;20444;-90
2022/03/14 06:54:23;;;;;;;1.17;0.87;;;21.20;51.10;;;;;;4969737;28;20421;-91
2022/03/14 06:56:48;;;;;;;1.13;0.73;;;21.20;51.10;;;;;;4952553;29;20189;-90
2022/03/14 06:59:14;;;;;;;1.10;1.00;;;21.20;51.10;;;;;;4952179;28;20426;-89
2022/03/14 07:01:40;;;;;;;1.47;1.00;;;21.20;51.00;;;;;;4969268;28;20179;-89
2022/03/14 07:04:06;;;;;;;1.00;0.80;;;21.20;51.00;;;;;;4953163;28;20218;-89
2022/03/14 07:06:32;;;;;;;1.00;0.70;;;21.30;51.00;;;;;;4968280;28;20419;-89
2022/03/14 07:08:58;;;;;;;1.23;0.97;;;21.30;51.60;;;;;;4968354;28;20217;-89
2022/03/14 07:11:26;;;;;;;0.93;0.80;;;21.30;51.00;;;;;;4952962;28;20421;-89
2022/03/14 07:13:52;;;;;;;1.10;0.93;;;21.30;50.90;;;;;;4951490;29;20547;-88
2022/03/14 07:16:17;;;;;;;1.30;1.13;;;21.30;51.00;;;;;;4951379;28;20503;-89
2022/03/14 07:18:44;;;;;;;1.10;1.00;;;21.40;51.00;;;;;;4951297;29;20186;-89
2022/03/14 07:21:09;;;;;;;0.90;0.70;;;21.40;51.00;;;;;;4968911;28;20178;-88
2022/03/14 07:23:37;;;;;;;1.20;0.80;;;21.40;50.90;;;;;;4951586;29;20455;-89
2022/03/14 07:26:02;;;;;;;0.93;0.70;;;21.40;50.90;;;;;;4950928;28;20182;-89
2022/03/14 07:28:28;;;;;;;0.90;0.70;;;21.40;50.90;;;;;;4950795;28;20421;-90
2022/03/14 07:30:54;;;;;;;1.00;0.90;;;21.40;50.90;;;;;;4951238;29;20212;-90
2022/03/14 07:33:20;;;;;;;1.27;0.90;;;21.50;50.90;;;;;;4951360;28;20228;-90
2022/03/14 07:35:46;;;;;;;1.67;1.00;;;21.50;50.90;;;;;;4950654;29;20485;-90
2022/03/14 07:38:12;;;;;;;1.00;0.70;;;21.50;50.90;;;;;;4951075;28;20430;-90
2022/03/14 07:40:38;;;;;;;1.10;0.90;;;21.50;50.90;;;;;;4967057;28;20648;-90
2022/03/14 07:43:04;;;;;;;0.90;0.70;;;21.50;50.90;;;;;;4967914;28;20797;-89
2022/03/14 07:45:30;;;;;;;1.10;0.90;;;21.50;50.90;;;;;;4949823;29;20186;-90
2022/03/14 07:47:57;;;;;;;1.53;0.90;;;21.60;50.90;;;;;;4966820;28;20450;-91
2022/03/14 07:50:25;;;;;;;1.23;0.87;;;21.60;50.90;;;;;;4967536;28;20425;-89
2022/03/14 07:52:51;;;;;;;1.00;0.80;;;21.60;50.90;;;;;;4950296;29;20429;-91
2022/03/14 07:55:17;;;;;;;1.17;0.93;;;21.60;50.90;;;;;;4952528;28;20468;-91
2022/03/14 07:57:46;;;;;;;1.00;0.80;;;21.60;50.80;;;;;;4954557;29;20422;-90
2022/03/14 08:00:14;;;;;;;1.07;0.90;;;21.60;50.80;;;;;;4979068;28;20424;-90
2022/03/14 08:02:41;;;;;;;0.90;0.80;;;21.60;50.80;;;;;;4970464;29;20422;-90
2022/03/14 08:05:09;;;;;;;1.20;1.00;;;21.60;50.80;;;;;;4953847;29;20528;-91
2022/03/14 08:07:35;;;;;;;1.00;0.73;;;21.60;50.80;;;;;;4970385;29;20414;-90
2022/03/14 08:10:04;;;;;;;1.10;0.90;;;21.60;50.80;;;;;;4954339;29;20426;-90
2022/03/14 08:12:31;;;;;;;1.07;0.87;;;21.60;50.80;;;;;;4953259;29;20437;-90
2022/03/14 08:14:57;;;;;;;1.00;0.80;;;21.60;50.80;;;;;;4953173;29;20461;-92
2022/03/14 08:17:23;;;;;;;1.00;0.90;;;21.60;50.80;;;;;;4970988;28;20434;-90
2022/03/14 08:19:49;;;;;;;1.00;0.80;;;21.60;50.80;;;;;;4970751;29;20444;-89
2022/03/14 08:22:15;;;;;;;1.20;1.00;;;21.60;50.80;;;;;;4970800;29;20163;-90
2022/03/14 08:24:40;;;;;;;1.10;0.80;;;21.60;51.40;;;;;;4969824;28;20473;-91
2022/03/14 08:27:06;;;;;;;1.37;0.80;;;21.60;50.80;;;;;;4970609;29;20174;-90
2022/03/14 08:29:32;;;;;;;1.20;0.87;;;21.60;50.80;;;;;;4953576;29;20237;-90
2022/03/14 08:32:01;;;;;;;0.90;0.70;;;21.60;50.80;;;;;;4952947;29;20186;-90
2022/03/14 08:34:27;;;;;;;1.47;0.90;;;21.60;50.80;;;;;;4968926;28;20418;-90
2022/03/14 08:36:53;;;;;;;1.30;1.07;;;21.60;50.80;;;;;;4969994;29;20499;-90
2022/03/14 08:39:19;;;;;;;0.80;0.70;;;21.60;50.80;;;;;;4970206;29;20418;-90
2022/03/14 08:41:45;;;;;;;1.30;0.90;;;21.60;50.80;;;;;;4970103;29;20185;-90
2022/03/14 08:44:11;;;;;;;1.10;0.70;;;21.70;50.90;;;;;;4952735;29;20655;-91
2022/03/14 08:46:38;;;;;;;1.00;0.70;;;21.60;50.80;;;;;;4968637;28;20177;-90
2022/03/14 08:49:04;;;;;;;1.10;0.80;;;21.60;50.80;;;;;;4969639;29;20405;-90
2022/03/14 08:51:35;;;;;;;1.00;0.80;;;21.70;50.90;;;;;;4952563;29;20432;-90
2022/03/14 08:54:01;;;;;;;1.10;0.93;;;21.70;50.90;;;;;;4952394;29;20921;-90
2022/03/14 08:56:27;;;;;;;1.00;0.80;;;21.70;50.90;;;;;;4952000;29;20463;-90
2022/03/14 08:58:52;;;;;;;1.30;0.80;;;21.70;50.90;;;;;;4969754;29;20426;-90
2022/03/14 09:01:20;;;;;;;1.00;0.80;;;21.70;50.90;;;;;;4969671;29;20178;-90
2022/03/14 09:03:46;;;;;;;0.90;0.80;;;21.70;50.90;;;;;;4968718;28;20278;-91
2022/03/14 09:06:12;;;;;;;0.90;0.80;;;21.70;50.90;;;;;;4951220;29;20469;-90
2022/03/14 09:08:38;;;;;;;1.03;0.93;;;21.70;50.90;;;;;;4969067;29;20185;-90
2022/03/14 09:11:09;;;;;;;1.30;0.83;;;21.70;50.90;;;;;;4953010;29;20186;-90
2022/03/14 09:13:35;;;;;;;1.50;0.83;;;21.70;50.90;;;;;;4970156;29;20415;-90
2022/03/14 09:16:01;;;;;;;1.00;0.80;;;21.70;50.90;;;;;;4968328;28;20464;-90
2022/03/14 09:18:29;;;;;;;1.00;0.80;;;21.70;50.90;;;;;;4951911;29;20209;-90
2022/03/14 09:20:56;;;;;;;1.00;0.80;;;21.70;50.90;;;;;;4969324;29;20497;-90
2022/03/14 09:23:24;;;;;;;1.10;0.83;;;21.70;50.90;;;;;;4951839;29;20449;-90
2022/03/14 09:25:50;;;;;;;1.10;0.90;;;21.70;50.90;;;;;;4951616;29;20429;-90
2022/03/14 09:28:16;;;;;;;1.13;0.77;;;21.70;50.90;;;;;;4969678;29;20406;-90
2022/03/14 09:30:45;;;;;;;1.17;0.90;;;21.70;50.90;;;;;;4951816;29;20457;-90
2022/03/14 09:33:10;;;;;;;0.90;0.80;;;21.70;50.90;;;;;;4969771;29;20178;-91
2022/03/14 09:35:36;;;;;;;1.03;0.90;;;21.70;50.90;;;;;;4951750;29;20460;-89
2022/03/14 09:38:02;;;;;;;1.20;0.90;;;21.70;50.90;;;;;;4969548;29;20185;-90
2022/03/14 09:40:33;;;;;;;1.00;0.77;;;21.70;50.90;;;;;;4982007;28;20245;-90
2022/03/14 09:42:59;;;;;;;0.90;0.80;;;21.70;50.90;;;;;;4970473;29;20446;-90
2022/03/14 09:45:44;;;;;;;1.00;0.80;;;21.70;50.90;;;;;;4972458;28;20432;-90
2022/03/14 09:48:14;;;;;;;1.00;0.80;;;21.70;50.90;;;;;;4990900;28;20448;-89
2022/03/14 09:50:41;;;;;;;1.10;0.83;;;21.70;51.00;;;;;;4990819;28;20398;-89
2022/03/14 09:53:28;;;;;;;1.03;0.93;;;21.70;50.90;;;;;;4972404;28;20433;-88
2022/03/14 09:55:59;;;;;;;0.90;0.70;;;21.70;51.00;;;;;;4964396;28;20468;-90
2022/03/14 09:58:26;;;;;;;0.90;0.80;;;21.70;50.90;;;;;;4973453;28;20461;-89
2022/03/14 10:01:00;;;;;;;1.10;0.90;;;21.70;50.90;;;;;;4991174;28;20431;-89
2022/03/14 10:03:26;;;;;;;1.00;0.70;;;21.70;51.00;;;;;;4972224;28;20433;-90
2022/03/14 10:05:52;;;;;;;1.13;0.90;;;21.70;51.00;;;;;;4989500;28;20425;-89
2022/03/14 10:08:18;;;;;;;1.93;0.97;;;21.70;51.00;;;;;;4971546;28;20433;-89
2022/03/14 10:10:46;;;;;;;0.90;0.70;;;21.70;51.00;;;;;;4988671;28;20525;-90
2022/03/14 10:13:16;;;;;;;1.20;0.87;;;21.70;51.00;;;;;;4987774;28;20421;-89
2022/03/14 10:15:45;;;;;;;1.20;0.80;;;21.70;51.00;;;;;;4970667;28;20983;-89
2022/03/14 10:18:18;;;;;;;0.90;0.70;;;21.70;51.00;;;;;;4970683;28;20424;-89
2022/03/14 10:21:05;;;;;;;0.93;0.80;;;21.70;51.00;;;;;;4970799;28;20425;-89
2022/03/14 10:23:41;;;;;;;1.63;0.90;;;21.70;51.00;;;;;;4988891;28;20736;-89
2022/03/14 10:26:11;;;;;;;0.97;0.80;;;21.60;51.00;;;;;;4971079;28;20471;-90
2022/03/14 10:28:38;;;;;;;1.00;0.90;;;21.60;51.00;;;;;;4970739;28;20421;-89
2022/03/14 10:31:05;;;;;;;1.00;0.80;;;21.60;50.90;;;;;;4968294;29;20441;-91
2022/03/14 10:33:32;;;;;;;1.20;0.90;;;21.60;51.00;;;;;;4968801;29;20453;-90
2022/03/14 10:36:00;;;;;;;1.00;0.80;;;21.60;51.00;;;;;;4969393;29;20458;-91
2022/03/14 10:38:42;;;;;;;1.00;0.80;;;21.60;51.00;;;;;;4969907;28;20436;-90
2022/03/14 10:41:15;;;;;;;0.90;0.80;;;21.60;51.00;;;;;;4993046;28;20456;-91
2022/03/14 10:43:43;;;;;;;1.10;0.90;;;21.60;51.00;;;;;;4991709;28;20413;-90
2022/03/14 10:46:47;;;;;;;1.30;0.80;;;21.60;51.00;;;;;;4972636;28;20433;-91
2022/03/14 10:49:14;;;;;;;0.90;0.70;;;21.60;51.00;;;;;;4972742;29;20414;-90
2022/03/14 10:51:56;;;;;;;1.03;0.80;;;21.60;51.00;;;;;;4970012;29;20413;-91
2022/03/14 10:54:23;;;;;;;1.20;0.80;;;21.60;51.10;;;;;;4972122;29;20421;-91
2022/03/14 10:57:09;;;;;;;0.97;0.70;;;21.60;51.10;;;;;;4960100;28;20425;-88
2022/03/14 11:00:06;;;;;;;1.00;0.83;;;21.60;51.10;;;;;;4972394;28;20774;-90
2022/03/14 11:02:33;;;;;;;0.80;0.80;;;21.60;51.10;;;;;;4984985;28;20444;-89
2022/03/14 11:05:23;;;;;;;1.00;0.80;;;21.60;51.10;;;;;;4988101;28;20429;-90
2022/03/14 11:07:49;;;;;;;1.00;0.80;;;21.60;51.10;;;;;;4970626;28;20417;-90
2022/03/14 11:10:18;;;;;;;1.33;1.00;;;21.60;51.10;;;;;;4970771;28;20448;-89
2022/03/14 11:12:45;;;;;;;1.03;0.90;;;21.60;51.10;;;;;;4970103;28;20174;-89
2022/03/14 11:15:13;;;;;;;1.00;0.80;;;21.60;51.10;;;;;;4987074;28;20503;-89
2022/03/14 11:17:39;;;;;;;1.10;0.80;;;21.60;51.10;;;;;;4970941;28;20472;-90
2022/03/14 11:20:09;;;;;;;1.00;0.80;;;21.60;51.10;;;;;;4970881;28;20417;-89
2022/03/14 11:22:36;;;;;;;1.20;0.97;;;21.60;51.10;;;;;;4988635;28;20189;-89
2022/03/14 11:25:02;;;;;;;1.00;0.80;;;21.60;51.10;;;;;;4987911;28;20429;-90
2022/03/14 11:27:29;;;;;;;0.90;0.80;;;21.60;51.00;;;;;;4987321;28;20410;-90
2022/03/14 11:30:06;;;;;;;1.03;0.80;;;21.60;51.00;;;;;;4973437;28;20451;-90
2022/03/14 11:32:37;;;;;;;1.00;0.87;;;21.60;51.00;;;;;;4989146;28;20443;-90
2022/03/14 11:35:05;;;;;;;0.90;0.70;;;21.60;51.00;;;;;;4970605;28;20457;-90
2022/03/14 11:37:32;;;;;;;1.10;0.80;;;21.60;51.00;;;;;;4958786;28;20433;-90
2022/03/14 11:39:59;;;;;;;0.97;0.87;;;21.60;51.00;;;;;;4972485;28;20460;-90
2022/03/14 11:42:26;;;;;;;0.90;0.70;;;21.60;51.00;;;;;;4989359;28;20519;-89
2022/03/14 11:44:55;;;;;;;1.00;0.90;;;21.60;51.00;;;;;;4972093;28;20449;-90
2022/03/14 11:47:23;;;;;;;1.63;0.80;;;21.60;51.00;;;;;;4971936;28;20432;-90
2022/03/14 11:49:51;;;;;;;0.90;0.80;;;21.60;51.00;;;;;;4970866;29;20433;-91
2022/03/14 11:52:24;;;;;;;1.50;0.93;;;21.60;51.00;;;;;;4970484;28;20429;-90
2022/03/14 11:54:58;;;;;;;1.10;0.70;;;21.60;51.00;;;;;;4973553;28;20456;-90
2022/03/14 11:57:43;;;;;;;1.03;0.70;;;21.60;51.00;;;;;;4991327;28;20422;-90
2022/03/14 12:00:21;;;;;;;1.00;0.83;;;21.60;51.00;;;;;;4972648;28;20436;-90
2022/03/14 12:03:33;;;;;;;1.00;0.80;;;21.50;50.90;;;;;;4975935;28;20429;-90
2022/03/14 12:06:01;;;;;;;1.00;0.80;;;21.50;50.90;;;;;;4988389;28;20480;-90
2022/03/14 12:08:27;;;;;;;1.00;0.80;;;21.50;51.00;;;;;;4968493;29;20478;-90
2022/03/14 12:10:55;;;;;;;1.20;0.87;;;21.50;51.00;;;;;;4984393;28;20426;-90
2022/03/14 12:13:43;;;;;;;1.10;0.90;;;21.50;51.00;;;;;;4969158;28;20433;-87
2022/03/14 12:16:38;;;;;;;1.17;0.87;;;21.50;51.00;;;;;;4968608;29;20461;-87
2022/03/14 12:19:32;;;;;;;1.00;0.90;;;21.50;51.00;;;;;;4967923;28;20927;-90
2022/03/14 12:22:02;;;;;;;0.97;0.80;;;21.50;51.00;;;;;;4965890;29;20468;-89
2022/03/14 12:24:49;;;;;;;0.93;0.70;;;21.50;51.00;;;;;;4968066;29;20470;-89
2022/03/14 12:27:15;;;;;;;0.97;0.73;;;21.50;51.10;;;;;;4968862;29;20788;-87
2022/03/14 12:29:42;;;;;;;1.00;0.70;;;21.50;51.10;;;;;;4985391;28;20486;-87
2022/03/14 12:32:27;;;;;;;0.90;0.77;;;21.50;51.10;;;;;;4968943;28;20174;-89
2022/03/14 12:35:25;;;;;;;0.90;0.80;;;21.50;51.10;;;;;;4983832;28;20457;-90
2022/03/14 12:41:04;;;;;;;1.23;0.80;;;21.50;51.10;;;;;;4971646;28;20417;-90
2022/03/14 12:43:33;;;;;;;1.20;0.90;;;21.50;51.10;;;;;;4972895;29;20441;-88
2022/03/14 12:46:02;;;;;;;1.13;0.70;;;21.50;51.10;;;;;;4972960;29;20486;-89
2022/03/14 12:48:30;;;;;;;0.90;0.70;;;21.50;51.10;;;;;;4989652;28;20433;-89
2022/03/14 12:50:57;;;;;;;1.20;0.80;;;21.50;51.10;;;;;;4970426;28;20414;-89
2022/03/14 12:53:31;;;;;;;0.90;0.80;;;21.50;51.10;;;;;;4989056;28;20509;-88
2022/03/14 12:55:58;;;;;;;1.13;0.70;;;21.50;51.00;;;;;;4989101;28;20456;-91
2022/03/14 12:58:28;;;;;;;0.83;0.70;;;21.50;51.00;;;;;;4986325;28;20433;-90
2022/03/14 13:00:58;;;;;;;1.20;0.90;;;21.50;51.00;;;;;;4969810;29;20445;-90